createdAt,value
2018-06-16T00:00:38.943Z,46.95
2018-06-16T00:03:07.986Z,80.17
2018-06-16T00:05:37.053Z,81.45
2018-06-16T00:08:06.170Z,66.42
2018-06-16T00:10:35.267Z,65.00
2018-06-16T00:13:04.376Z,103.00
2018-06-16T00:15:33.431Z,101.33
2018-06-16T00:18:02.600Z,84.87
2018-06-16T00:20:31.617Z,95.05
2018-06-16T00:23:00.671Z,100.35
2018-06-16T00:25:29.767Z,100.50
2018-06-16T00:27:58.799Z,100.67
2018-06-16T00:30:27.821Z,87.17
2018-06-16T00:32:56.876Z,111.60
2018-06-16T00:35:25.891Z,111.65
2018-06-16T00:37:54.939Z,101.75
2018-06-16T00:40:23.967Z,90.15
2018-06-16T00:42:53.012Z,78.35
2018-06-16T00:45:22.052Z,83.67
2018-06-16T00:47:51.096Z,90.92
2018-06-16T00:50:20.104Z,98.42
2018-06-16T00:52:49.218Z,92.90
2018-06-16T00:55:18.236Z,103.62
2018-06-16T00:57:48.652Z,85.07
2018-06-16T01:00:18.756Z,80.22
2018-06-16T01:02:48.291Z,77.70
2018-06-16T01:05:17.318Z,85.80
2018-06-16T01:07:46.399Z,83.75
2018-06-16T01:10:15.440Z,85.05
2018-06-16T01:12:44.489Z,70.25
2018-06-16T01:15:13.543Z,80.35
2018-06-16T01:17:42.556Z,92.27
2018-06-16T01:20:11.608Z,78.75
2018-06-16T01:22:40.655Z,89.80
2018-06-16T01:25:09.671Z,84.85
2018-06-16T01:27:38.724Z,77.67
2018-06-16T01:30:07.737Z,88.50
2018-06-16T01:32:36.781Z,79.40
2018-06-16T01:35:05.821Z,77.00
2018-06-16T01:37:34.870Z,77.78
2018-06-16T01:40:03.975Z,79.25
2018-06-16T01:42:32.991Z,72.45
2018-06-16T01:45:02.053Z,68.97
2018-06-16T01:47:31.088Z,56.00
2018-06-16T01:50:00.092Z,54.93
2018-06-16T01:52:29.136Z,63.30
2018-06-16T01:54:58.176Z,58.68
2018-06-16T01:57:27.216Z,55.35
2018-06-16T01:59:56.248Z,57.38
2018-06-16T02:02:25.272Z,58.80
2018-06-16T02:04:54.321Z,58.75
2018-06-16T02:07:23.365Z,61.42
2018-06-16T02:09:52.436Z,56.95
2018-06-16T02:12:21.444Z,57.53
2018-06-16T02:14:50.544Z,64.32
2018-06-16T02:17:19.574Z,57.23
2018-06-16T02:19:48.622Z,56.70
2018-06-16T02:22:17.687Z,57.70
2018-06-16T02:24:46.768Z,53.13
2018-06-16T02:27:15.785Z,57.83
2018-06-16T02:29:44.826Z,51.92
2018-06-16T02:32:13.835Z,51.63
2018-06-16T02:34:42.909Z,50.75
2018-06-16T02:37:11.936Z,50.15
2018-06-16T02:39:41.011Z,46.13
2018-06-16T02:42:10.045Z,47.53
2018-06-16T02:44:39.096Z,45.50
2018-06-16T02:47:08.108Z,46.05
2018-06-16T02:49:37.154Z,47.83
2018-06-16T02:52:06.562Z,44.00
2018-06-16T02:54:35.606Z,42.55
2018-06-16T02:57:04.616Z,42.40
2018-06-16T02:59:33.819Z,44.70
2018-06-16T03:02:03.225Z,45.75
2018-06-16T03:04:32.284Z,45.40
2018-06-16T03:07:01.311Z,45.75
2018-06-16T03:09:30.347Z,45.12
2018-06-16T03:11:59.387Z,45.00
2018-06-16T03:14:28.440Z,46.42
2018-06-16T03:16:57.458Z,45.52
2018-06-16T03:19:26.210Z,45.80
2018-06-16T03:21:55.173Z,44.73
2018-06-16T03:24:24.252Z,43.45
2018-06-16T03:26:53.261Z,41.80
2018-06-16T03:29:22.306Z,43.28
2018-06-16T03:31:51.336Z,47.53
2018-06-16T03:34:20.384Z,45.50
2018-06-16T03:36:49.428Z,47.48
2018-06-16T03:39:18.611Z,44.03
2018-06-16T03:41:47.621Z,45.05
2018-06-16T03:44:16.650Z,46.45
2018-06-16T03:46:45.691Z,45.55
2018-06-16T03:49:14.695Z,41.92
2018-06-16T03:51:43.736Z,44.23
2018-06-16T03:54:12.752Z,42.40
2018-06-16T03:56:41.851Z,44.63
2018-06-16T03:59:10.856Z,42.60
2018-06-16T04:01:40.093Z,45.10
2018-06-16T04:04:09.159Z,47.80
2018-06-16T04:06:38.176Z,45.80
2018-06-16T04:09:09.010Z,47.73
2018-06-16T04:11:38.626Z,45.58
2018-06-16T04:14:07.956Z,44.63
2018-06-16T04:16:37.058Z,44.45
2018-06-16T04:19:06.084Z,39.78
2018-06-16T04:21:35.145Z,41.92
2018-06-16T04:24:04.242Z,42.25
2018-06-16T04:26:33.264Z,40.58
2018-06-16T04:29:02.273Z,39.40
2018-06-16T04:31:31.321Z,40.63
2018-06-16T04:34:00.369Z,38.08
2018-06-16T04:36:29.436Z,38.40
2018-06-16T04:38:58.457Z,37.13
2018-06-16T04:41:27.596Z,38.28
2018-06-16T04:43:56.605Z,37.98
2018-06-16T04:46:25.649Z,36.48
2018-06-16T04:48:54.664Z,37.73
2018-06-16T04:51:23.763Z,45.38
2018-06-16T04:53:52.779Z,37.30
2018-06-16T04:56:21.788Z,39.95
2018-06-16T04:58:50.824Z,37.58
2018-06-16T05:01:19.825Z,34.40
2018-06-16T05:03:48.885Z,41.40
2018-06-16T05:06:17.990Z,35.78
2018-06-16T05:08:47.021Z,36.30
2018-06-16T05:11:16.068Z,44.53
2018-06-16T05:13:45.144Z,37.35
2018-06-16T05:16:14.175Z,37.35
2018-06-16T05:18:43.215Z,36.83
2018-06-16T05:21:12.269Z,39.75
2018-06-16T05:23:41.359Z,60.60
2018-06-16T05:26:10.407Z,45.15
2018-06-16T05:28:39.487Z,46.73
2018-06-16T05:31:08.503Z,44.53
2018-06-16T05:33:37.552Z,70.78
2018-06-16T05:36:06.625Z,59.80
2018-06-16T05:38:35.784Z,56.08
2018-06-16T05:41:04.810Z,59.15
2018-06-16T05:43:33.873Z,60.85
2018-06-16T05:46:02.885Z,69.95
2018-06-16T05:48:31.921Z,62.13
2018-06-16T05:51:00.938Z,68.83
2018-06-16T05:53:29.986Z,67.17
2018-06-16T05:55:59.010Z,65.55
2018-06-16T05:58:28.048Z,64.87
2018-06-16T06:00:57.070Z,81.35
2018-06-16T06:03:26.144Z,80.15
2018-06-16T06:05:55.207Z,111.75
2018-06-16T06:08:24.289Z,73.70
2018-06-16T06:10:53.575Z,74.55
2018-06-16T06:13:22.704Z,72.10
2018-06-16T06:15:51.821Z,82.10
2018-06-16T06:18:20.860Z,77.20
2018-06-16T06:20:49.892Z,89.10
2018-06-16T06:23:19.054Z,87.22
2018-06-16T06:25:48.105Z,80.83
2018-06-16T06:28:17.156Z,94.87
2018-06-16T06:30:46.204Z,77.78
2018-06-16T06:33:15.236Z,91.50
2018-06-16T06:35:44.296Z,89.80
2018-06-16T06:38:13.333Z,94.75
2018-06-16T06:40:42.396Z,109.20
2018-06-16T06:43:11.495Z,125.63
2018-06-16T06:45:40.977Z,108.90
2018-06-16T06:48:10.117Z,106.10
2018-06-16T06:50:39.224Z,116.00
2018-06-16T06:53:08.577Z,127.97
2018-06-16T06:55:37.805Z,117.63
2018-06-16T06:58:07.046Z,109.07
2018-06-16T07:00:36.094Z,109.90
2018-06-16T07:03:05.471Z,133.90
2018-06-16T07:05:35.428Z,107.70
2018-06-16T07:08:05.657Z,121.40
2018-06-16T07:10:34.804Z,115.70
2018-06-16T07:13:03.868Z,118.77
2018-06-16T07:15:32.891Z,124.63
2018-06-16T07:18:01.948Z,114.37
2018-06-16T07:20:31.007Z,116.47
2018-06-16T07:23:00.051Z,80.60
2018-06-16T07:25:29.105Z,103.17
2018-06-16T07:27:58.170Z,92.03
2018-06-16T07:30:27.748Z,86.80
2018-06-16T07:32:57.246Z,74.50
2018-06-16T07:35:26.311Z,83.87
2018-06-16T07:37:55.372Z,91.23
2018-06-16T07:40:24.438Z,71.77
2018-06-16T07:42:53.752Z,83.37
2018-06-16T07:45:22.840Z,65.20
2018-06-16T07:47:51.863Z,85.73
2018-06-16T07:50:21.287Z,114.23
2018-06-16T07:52:51.135Z,71.90
2018-06-16T07:55:20.734Z,77.00
2018-06-16T07:57:49.893Z,76.87
2018-06-16T08:00:19.238Z,83.03
2018-06-16T08:02:48.423Z,63.27
2018-06-16T08:05:17.600Z,73.53
2018-06-16T08:07:46.664Z,62.23
2018-06-16T08:10:16.225Z,79.03
2018-06-16T08:12:45.434Z,64.23
2018-06-16T08:15:14.593Z,61.17
2018-06-16T08:17:43.869Z,58.00
2018-06-16T08:20:15.120Z,65.13
2018-06-16T08:22:44.235Z,53.27
2018-06-16T08:25:13.390Z,63.87
2018-06-16T08:27:42.539Z,54.80
2018-06-16T08:30:11.975Z,57.80
2018-06-16T08:32:41.112Z,62.83
2018-06-16T08:35:12.387Z,60.00
2018-06-16T08:37:41.445Z,56.73
2018-06-16T08:40:11.387Z,55.87
2018-06-16T08:42:40.927Z,56.03
2018-06-16T08:45:09.990Z,53.87
2018-06-16T08:47:39.064Z,67.33
2018-06-16T08:50:08.435Z,59.27
2018-06-16T08:52:37.627Z,55.57
2018-06-16T08:55:06.730Z,53.30
2018-06-16T08:57:35.945Z,59.87
2018-06-16T09:00:05.567Z,56.20
2018-06-16T09:02:34.958Z,54.43
2018-06-16T09:05:04.116Z,55.70
2018-06-16T09:07:33.350Z,55.37
2018-06-16T09:10:02.448Z,57.53
2018-06-16T09:12:31.504Z,52.27
2018-06-16T09:15:01.095Z,50.43
2018-06-16T09:17:30.241Z,56.03
2018-06-16T09:19:59.268Z,47.63
2018-06-16T09:22:28.322Z,52.67
2018-06-16T09:24:57.223Z,52.57
2018-06-16T09:27:26.275Z,55.60
2018-06-16T09:29:55.417Z,59.13
2018-06-16T09:32:24.428Z,55.80
2018-06-16T09:34:53.574Z,48.23
2018-06-16T09:37:22.597Z,49.87
2018-06-16T09:39:51.801Z,50.50
2018-06-16T09:42:20.842Z,49.40
2018-06-16T09:44:51.738Z,47.27
2018-06-16T09:47:20.845Z,49.97
2018-06-16T09:49:49.867Z,49.87
2018-06-16T09:52:19.179Z,46.10
2018-06-16T09:54:48.228Z,61.60
2018-06-16T09:57:17.331Z,49.27
2018-06-16T09:59:46.391Z,48.50
2018-06-16T10:02:15.413Z,47.23
2018-06-16T10:04:44.492Z,79.10
2018-06-16T10:07:14.131Z,45.37
2018-06-16T10:09:43.165Z,45.83
2018-06-16T10:12:12.180Z,44.60
2018-06-16T10:14:41.223Z,70.13
2018-06-16T10:17:10.335Z,53.83
2018-06-16T10:19:39.374Z,47.27
2018-06-16T10:22:08.663Z,47.37
2018-06-16T10:24:37.964Z,58.33
2018-06-16T10:27:07.224Z,57.10
2018-06-16T10:29:36.325Z,78.07
2018-06-16T10:32:05.435Z,66.53
2018-06-16T10:34:34.712Z,53.77
2018-06-16T10:37:04.148Z,55.30
2018-06-16T10:39:33.508Z,55.67
2018-06-16T10:42:02.731Z,54.63
2018-06-16T10:44:31.784Z,56.43
2018-06-16T10:47:01.277Z,55.40
2018-06-16T10:49:30.501Z,57.83
2018-06-16T10:51:59.660Z,55.97
2018-06-16T10:54:28.735Z,55.67
2018-06-16T10:56:57.855Z,56.60
2018-06-16T10:59:27.471Z,60.33
2018-06-16T11:01:56.919Z,55.17
2018-06-16T11:04:26.510Z,55.57
2018-06-16T11:06:56.363Z,56.53
2018-06-16T11:09:26.332Z,59.93
2018-06-16T11:11:55.408Z,58.60
2018-06-16T11:14:24.474Z,67.10
2018-06-16T11:16:53.640Z,56.00
2018-06-16T11:19:22.810Z,56.37
2018-06-16T11:21:52.004Z,59.17
2018-06-16T11:24:21.055Z,57.77
2018-06-16T11:26:50.147Z,60.17
2018-06-16T11:29:19.261Z,59.30
2018-06-16T11:31:48.342Z,59.27
2018-06-16T11:34:17.548Z,61.60
2018-06-16T11:36:46.836Z,59.87
2018-06-16T11:39:15.995Z,63.87
2018-06-16T11:41:45.213Z,56.80
2018-06-16T11:44:14.389Z,61.87
2018-06-16T11:46:43.476Z,59.27
2018-06-16T11:49:12.492Z,60.37
2018-06-16T11:51:41.540Z,101.50
2018-06-16T11:54:10.552Z,84.70
2018-06-16T11:56:39.619Z,62.67
2018-06-16T11:59:08.680Z,133.53
2018-06-16T12:01:37.812Z,63.57
2018-06-16T12:04:06.888Z,75.83
2018-06-16T12:06:35.968Z,57.20
2018-06-16T12:09:07.815Z,59.00
2018-06-16T12:11:36.916Z,71.83
2018-06-16T12:14:06.096Z,59.67
2018-06-16T12:16:35.154Z,62.90
2018-06-16T12:19:04.198Z,57.23
2018-06-16T12:21:33.215Z,57.40
2018-06-16T12:24:02.280Z,55.37
2018-06-16T12:26:31.401Z,65.93
2018-06-16T12:29:00.624Z,56.80
2018-06-16T12:31:30.595Z,74.57
2018-06-16T12:33:59.724Z,86.30
2018-06-16T12:36:28.812Z,95.00
2018-06-16T12:38:57.863Z,60.23
2018-06-16T12:41:26.920Z,54.83
2018-06-16T12:43:55.975Z,56.30
2018-06-16T12:46:25.007Z,54.80
2018-06-16T12:48:54.135Z,48.77
2018-06-16T12:51:23.189Z,52.57
2018-06-16T12:53:52.432Z,53.17
2018-06-16T12:56:21.480Z,59.27
2018-06-16T12:58:50.548Z,75.20
2018-06-16T13:01:19.617Z,59.17
2018-06-16T13:03:48.632Z,86.00
2018-06-16T13:06:17.688Z,106.87
2018-06-16T13:08:53.181Z,59.20
2018-06-16T13:11:22.236Z,54.93
2018-06-16T13:13:51.283Z,59.80
2018-06-16T13:16:20.332Z,56.60
2018-06-16T13:18:49.351Z,64.63
2018-06-16T13:21:18.419Z,67.37
2018-06-16T13:23:47.572Z,61.57
2018-06-16T13:26:16.680Z,54.83
2018-06-16T13:28:45.727Z,121.13
2018-06-16T13:31:14.755Z,58.80
2018-06-16T13:33:43.975Z,105.83
2018-06-16T13:36:12.707Z,67.50
2018-06-16T13:38:41.633Z,74.13
2018-06-16T13:41:10.686Z,57.67
2018-06-16T13:43:39.744Z,55.73
2018-06-16T13:46:08.781Z,68.27
2018-06-16T13:48:37.836Z,63.93
2018-06-16T13:51:06.915Z,53.77
2018-06-16T13:53:35.975Z,59.17
2018-06-16T13:56:05.064Z,55.47
2018-06-16T13:58:34.115Z,64.60
2018-06-16T14:01:03.309Z,57.20
2018-06-16T14:03:32.353Z,57.53
2018-06-16T14:06:01.595Z,56.93
2018-06-16T14:08:30.640Z,58.50
2018-06-16T14:10:59.664Z,57.77
2018-06-16T14:13:28.707Z,56.93
2018-06-16T14:15:57.776Z,53.97
2018-06-16T14:18:26.835Z,60.50
2018-06-16T14:20:55.899Z,57.40
2018-06-16T14:23:24.971Z,65.40
2018-06-16T14:25:54.025Z,59.93
2018-06-16T14:28:23.107Z,54.77
2018-06-16T14:30:52.186Z,61.40
2018-06-16T14:33:21.257Z,54.33
2018-06-16T14:35:50.435Z,48.53
2018-06-16T14:38:19.486Z,46.53
2018-06-16T14:40:48.556Z,45.87
2018-06-16T14:43:17.680Z,49.77
2018-06-16T14:45:46.782Z,48.73
2018-06-16T14:48:16.174Z,44.83
2018-06-16T14:50:45.210Z,44.80
2018-06-16T14:53:13.927Z,47.10
2018-06-16T14:55:42.894Z,46.30
2018-06-16T14:58:11.966Z,50.10
2018-06-16T15:00:41.129Z,42.57
2018-06-16T15:03:10.191Z,48.07
2018-06-16T15:05:39.235Z,46.50
2018-06-16T15:08:08.292Z,51.53
2018-06-16T15:10:37.329Z,46.37
2018-06-16T15:13:06.412Z,46.03
2018-06-16T15:15:35.459Z,46.10
2018-06-16T15:18:04.196Z,43.67
2018-06-16T15:20:33.161Z,47.40
2018-06-16T15:23:02.174Z,45.40
2018-06-16T15:25:31.260Z,45.87
2018-06-16T15:28:00.290Z,47.00
2018-06-16T15:30:29.376Z,44.00
2018-06-16T15:32:58.471Z,43.57
2018-06-16T15:35:27.550Z,43.10
2018-06-16T15:37:56.561Z,45.87
2018-06-16T15:40:25.664Z,45.93
2018-06-16T15:42:54.716Z,45.70
2018-06-16T15:45:23.832Z,47.30
2018-06-16T15:47:52.881Z,47.80
2018-06-16T15:50:21.938Z,47.27
2018-06-16T15:52:51.383Z,46.77
2018-06-16T15:55:20.429Z,50.47
2018-06-16T15:57:49.479Z,47.40
2018-06-16T16:00:18.544Z,47.80
2018-06-16T16:02:47.644Z,47.27
2018-06-16T16:05:16.723Z,48.57
2018-06-16T16:07:45.784Z,50.53
2018-06-16T16:10:14.871Z,50.30
2018-06-16T16:12:43.949Z,51.10
2018-06-16T16:15:13.055Z,49.77
2018-06-16T16:17:42.137Z,49.17
2018-06-16T16:20:11.349Z,56.30
2018-06-16T16:22:40.412Z,52.20
2018-06-16T16:25:09.572Z,54.77
2018-06-16T16:27:38.651Z,51.30
2018-06-16T16:30:07.754Z,48.80
2018-06-16T16:32:36.831Z,48.67
2018-06-16T16:35:06.039Z,71.23
2018-06-16T16:37:35.163Z,48.00
2018-06-16T16:40:04.639Z,53.00
2018-06-16T16:42:33.839Z,51.90
2018-06-16T16:45:02.949Z,46.77
2018-06-16T16:47:32.073Z,49.00
2018-06-16T16:50:01.200Z,47.47
2018-06-16T16:52:30.252Z,47.13
2018-06-16T16:54:59.304Z,49.10
2018-06-16T16:57:28.448Z,51.27
2018-06-16T16:59:57.568Z,50.40
2018-06-16T17:02:26.823Z,49.33
2018-06-16T17:04:55.908Z,49.63
2018-06-16T17:07:25.005Z,50.73
2018-06-16T17:09:54.372Z,48.27
2018-06-16T17:12:23.354Z,49.23
2018-06-16T17:14:52.353Z,48.17
2018-06-16T17:17:21.413Z,50.70
2018-06-16T17:19:50.504Z,48.03
2018-06-16T17:22:19.600Z,53.67
2018-06-16T17:24:48.710Z,51.07
2018-06-16T17:27:17.825Z,52.00
2018-06-16T17:29:46.866Z,53.17
2018-06-16T17:32:15.990Z,58.37
2018-06-16T17:34:45.128Z,58.50
2018-06-16T17:37:14.239Z,61.30
2018-06-16T17:39:43.267Z,58.77
2018-06-16T17:42:12.370Z,54.87
2018-06-16T17:44:41.413Z,58.90
2018-06-16T17:47:10.638Z,60.40
2018-06-16T17:49:39.883Z,63.27
2018-06-16T17:52:09.040Z,73.07
2018-06-16T17:54:38.249Z,69.40
2018-06-16T17:57:07.347Z,74.73
2018-06-16T17:59:36.679Z,76.27
2018-06-16T18:02:05.901Z,75.87
2018-06-16T18:04:35.117Z,78.83
2018-06-16T18:07:04.434Z,82.73
2018-06-16T18:09:33.520Z,74.77
2018-06-16T18:12:02.803Z,78.37
2018-06-16T18:14:32.141Z,74.93
2018-06-16T18:17:01.640Z,84.40
2018-06-16T18:19:30.693Z,77.07
2018-06-16T18:21:59.740Z,83.30
2018-06-16T18:24:29.015Z,81.20
2018-06-16T18:26:58.267Z,85.77
2018-06-16T18:29:27.425Z,82.60
2018-06-16T18:31:56.648Z,74.97
2018-06-16T18:34:25.735Z,83.27
2018-06-16T18:36:54.815Z,82.97
2018-06-16T18:39:23.849Z,74.83
2018-06-16T18:41:52.974Z,79.80
2018-06-16T18:44:22.084Z,77.33
2018-06-16T18:46:51.193Z,75.77
2018-06-16T18:49:20.312Z,74.87
2018-06-16T18:51:49.534Z,78.23
2018-06-16T18:54:18.339Z,78.43
2018-06-16T18:56:47.394Z,69.40
2018-06-16T18:59:16.615Z,74.77
2018-06-16T19:01:45.753Z,68.67
2018-06-16T19:04:15.021Z,64.87
2018-06-16T19:06:44.097Z,69.60
2018-06-16T19:09:12.939Z,70.37
2018-06-16T19:11:42.072Z,69.70
2018-06-16T19:14:11.094Z,72.33
2018-06-16T19:16:40.009Z,68.17
2018-06-16T19:19:08.982Z,71.63
2018-06-16T19:21:38.283Z,73.03
2018-06-16T19:24:07.579Z,72.30
2018-06-16T19:26:36.933Z,68.57
2018-06-16T19:29:06.195Z,70.20
2018-06-16T19:31:35.380Z,61.60
2018-06-16T19:34:04.577Z,61.90
2018-06-16T19:36:33.640Z,56.67
2018-06-16T19:39:02.950Z,57.40
2018-06-16T19:41:32.124Z,58.63
2018-06-16T19:44:01.456Z,57.70
2018-06-16T19:46:30.379Z,57.30
2018-06-16T19:48:59.557Z,55.10
2018-06-16T19:51:28.793Z,54.50
2018-06-16T19:53:57.983Z,55.10
2018-06-16T19:56:27.193Z,52.37
2018-06-16T19:58:56.814Z,49.67
2018-06-16T20:01:26.589Z,46.97
2018-06-16T20:03:55.869Z,49.53
2018-06-16T20:06:24.959Z,49.20
2018-06-16T20:08:54.267Z,51.70
2018-06-16T20:11:23.346Z,48.67
2018-06-16T20:13:52.567Z,49.17
2018-06-16T20:16:21.598Z,45.67
2018-06-16T20:18:50.663Z,53.97
2018-06-16T20:21:20.299Z,59.25
2018-06-16T20:23:49.350Z,58.68
2018-06-16T20:26:18.386Z,60.83
2018-06-16T20:28:47.448Z,58.55
2018-06-16T20:31:16.483Z,61.23
2018-06-16T20:33:45.872Z,60.73
2018-06-16T20:36:14.932Z,73.97
2018-06-16T20:38:44.046Z,70.83
2018-06-16T20:41:13.055Z,67.42
2018-06-16T20:43:42.148Z,60.58
2018-06-16T20:46:11.212Z,64.58
2018-06-16T20:48:40.441Z,57.13
2018-06-16T20:51:09.525Z,59.25
2018-06-16T20:53:38.673Z,65.95
2018-06-16T20:56:07.693Z,64.17
2018-06-16T20:58:36.777Z,59.50
2018-06-16T21:01:05.595Z,65.83
2018-06-16T21:03:34.540Z,70.52
2018-06-16T21:06:03.596Z,66.17
2018-06-16T21:08:32.664Z,67.22
2018-06-16T21:11:01.776Z,63.58
2018-06-16T21:13:30.851Z,64.58
2018-06-16T21:15:59.896Z,66.53
2018-06-16T21:18:28.988Z,65.83
2018-06-16T21:20:58.009Z,64.67
2018-06-16T21:23:27.083Z,67.40
2018-06-16T21:25:56.175Z,69.87
2018-06-16T21:28:25.189Z,63.00
2018-06-16T21:30:54.446Z,61.50
2018-06-16T21:33:23.479Z,62.93
2018-06-16T21:35:52.960Z,62.85
2018-06-16T21:38:22.110Z,56.73
2018-06-16T21:40:51.177Z,58.02
2018-06-16T21:43:20.300Z,57.50
2018-06-16T21:45:49.511Z,52.05
2018-06-16T21:48:18.591Z,44.83
2018-06-16T21:50:47.681Z,44.23
2018-06-16T21:53:16.700Z,44.15
2018-06-16T21:55:45.782Z,41.55
2018-06-16T21:58:14.779Z,44.05
2018-06-16T22:00:43.892Z,42.17
2018-06-16T22:03:12.896Z,40.10
2018-06-16T22:05:41.962Z,41.70
2018-06-16T22:08:16.309Z,43.15
2018-06-16T22:10:45.410Z,40.12
2018-06-16T22:13:14.451Z,39.18
2018-06-16T22:15:43.560Z,40.90
2018-06-16T22:18:12.579Z,42.93
2018-06-16T22:20:41.660Z,40.95
2018-06-16T22:23:10.677Z,42.10
2018-06-16T22:25:39.742Z,42.45
2018-06-16T22:28:08.800Z,43.20
2018-06-16T22:30:37.829Z,40.88
2018-06-16T22:33:06.949Z,45.17
2018-06-16T22:35:36.099Z,43.80
2018-06-16T22:38:05.279Z,40.70
2018-06-16T22:40:34.304Z,41.23
2018-06-16T22:43:03.332Z,42.03
2018-06-16T22:45:32.403Z,41.95
2018-06-16T22:48:01.432Z,42.17
2018-06-16T22:50:30.497Z,41.48
2018-06-16T22:52:59.527Z,42.17
2018-06-16T22:55:28.580Z,41.98
2018-06-16T22:57:57.693Z,41.55
2018-06-16T23:00:31.012Z,46.02
2018-06-16T23:03:00.065Z,39.70
2018-06-16T23:05:29.103Z,42.27
2018-06-16T23:07:58.143Z,40.83
2018-06-16T23:10:27.189Z,41.85
2018-06-16T23:12:56.201Z,43.63
2018-06-16T23:15:25.284Z,40.60
2018-06-16T23:17:54.296Z,41.40
2018-06-16T23:20:23.344Z,41.90
2018-06-16T23:22:52.410Z,43.35
2018-06-16T23:25:21.467Z,44.40
2018-06-16T23:27:50.486Z,43.80
2018-06-16T23:30:19.519Z,43.10
2018-06-16T23:32:48.549Z,43.13
2018-06-16T23:35:17.595Z,43.28
2018-06-16T23:37:46.636Z,40.33
2018-06-16T23:40:15.680Z,43.40
2018-06-16T23:42:44.723Z,45.55
2018-06-16T23:45:13.812Z,41.42
2018-06-16T23:47:43.197Z,44.20
2018-06-16T23:50:12.273Z,41.05
2018-06-16T23:52:41.327Z,42.90
2018-06-16T23:55:10.418Z,41.75
2018-06-16T23:57:39.424Z,43.38
